EDT,Max TemperatureF,Mean TemperatureF,Min TemperatureF,Max Dew PointF,MeanDew PointF,Min DewpointF,Max Humidity, Mean Humidity, Min Humidity, Max Sea Level PressureIn, Mean Sea Level PressureIn, Min Sea Level PressureIn, Max VisibilityMiles, Mean VisibilityMiles, Min VisibilityMiles, Max Wind SpeedMPH, Mean Wind SpeedMPH, Max Gust SpeedMPH,PrecipitationIn, CloudCover, Events, WindDirDegrees
2012-10-1,66,60,53,55,51,45,88,72,51,29.96,29.82,29.76,10,10,10,29,15,39,0.00,0,,252
2012-10-2,71,62,53,64,56,50,100,80,53,30.08,30.03,29.96,10,10,3,12,5,,0.28,4,Rain,245
2012-10-3,66,62,59,66,63,57,100,99,94,30.14,30.08,30.03,10,2,0,12,5,,0.02,8,Fog-Rain,78
2012-10-4,66,62,59,65,60,57,100,98,88,30.14,30.10,30.03,10,6,0,13,5,16,0.00,8,Fog-Rain,359
2012-10-5,73,65,57,63,59,55,100,87,53,30.05,30.00,29.94,10,7,0,10,4,,0.00,3,Fog-Rain,263
2012-10-6,75,65,55,64,60,46,100,85,61,29.94,29.86,29.77,10,8,0,26,10,34,0.04,1,Fog,224
2012-10-7,59,50,42,51,44,37,100,78,48,30.08,30.03,29.93,10,9,2,13,6,,0.04,3,Rain,330
2012-10-8,56,48,41,49,44,41,100,84,60,30.32,30.21,30.06,10,10,2,13,6,21,0.01,4,Rain,12
2012-10-9,56,53,50,56,51,46,100,93,82,30.30,30.20,30.10,10,7,2,18,11,24,0.31,7,Rain,56
2012-10-10,64,58,53,61,57,50,100,92,77,30.11,29.91,29.74,10,9,1,20,11,24,0.00,7,Rain,112
2012-10-11,59,50,41,50,38,34,93,63,41,30.17,30.06,29.81,10,10,10,18,13,31,0.00,0,,279
2012-10-12,62,50,39,46,38,23,93,68,41,30.34,30.12,30.02,10,10,10,23,8,25,0.00,2,Rain,298
2012-10-13,50,41,32,37,27,19,87,61,33,30.48,30.41,30.34,10,10,10,14,7,17,0.00,0,,292
2012-10-14,64,55,46,60,51,37,88,77,57,30.34,30.16,30.01,10,10,8,29,14,39,0.00,4,Rain,221
2012-10-15,71,66,62,63,61,57,100,82,64,30.00,29.81,29.63,10,10,7,25,18,33,0.02,1,,211
2012-10-16,64,52,41,63,44,36,100,73,41,29.87,29.68,29.56,10,10,5,20,11,26,0.04,0,Rain-Thunderstorm,296
2012-10-17,57,46,35,45,38,32,93,76,44,30.02,29.95,29.87,10,10,9,9,4,,0.00,0,Thunderstorm,335
2012-10-18,62,48,35,55,46,36,100,84,58,30.12,30.08,30.02,10,10,10,14,3,16,0.00,0,,138
2012-10-19,68,60,53,66,59,52,100,88,68,30.08,29.92,29.78,10,8,3,24,12,31,0.00,0,Rain-Thunderstorm,135
2012-10-20,68,62,57,66,61,50,100,92,73,29.79,29.72,29.67,10,8,2,20,12,25,0.00,0,Rain-Thunderstorm,209
2012-10-21,62,53,44,50,42,39,87,65,42,29.92,29.86,29.77,10,10,10,16,9,24,0.00,1,,279
2012-10-22,64,57,50,47,42,39,82,61,38,30.00,29.93,29.89,10,10,10,22,11,28,0.00,0,,292
2012-10-23,64,53,42,52,45,39,94,71,40,30.11,30.06,30.00,10,10,6,14,5,,0.00,0,Rain,313
2012-10-24,56,50,41,54,45,39,94,78,62,30.22,30.16,30.11,10,10,10,13,5,17,0.00,5,Rain,32
2012-10-25,62,48,35,46,40,34,100,76,45,30.31,30.27,30.22,10,10,9,10,2,,0.00,0,,130
2012-10-26,64,50,37,49,41,36,100,75,37,30.28,30.21,30.14,10,10,10,13,2,,0.00,0,,180
2012-10-27,64,52,39,52,45,37,100,79,41,30.14,30.05,29.98,10,10,2,13,4,17,0.00,0,,55
2012-10-28,59,54,50,54,50,48,100,86,75,29.98,29.87,29.65,10,8,2,28,15,36,0.00,0,,58
2012-10-29,64,58,53,63,57,52,100,95,83,29.68,29.37,29.12,10,3,1,41,26,62,0.04,0,Rain,74
2012-10-30,64,58,53,59,57,52,100,91,77,29.59,29.51,29.33,10,7,2,22,12,26,0.00,2,Rain-Thunderstorm,132
2012-10-31,59,52,46,57,50,43,100,88,74,29.60,29.55,29.49,10,9,2,17,7,26,0.03,2,Rain,213